Time;durP1;ratioP1;P1;durP2;ratioP2;P2;SDS_P1;SDS_P2;PMS_P1;PMS_P2;Temp;Humidity;BMP_temperature;BMP_pressure;BME280_temperature;BME280_humidity;BME280_pressure;Samples;Min_cycle;Max_cycle;Signal;HPM_P1;HPM_P2
2024/02/17 00:00:50;;;;;;;1.73;1.30;;;21.10;55.80;;;;;;5053199;28;20183;-71
2024/02/17 00:03:22;;;;;;;1.87;1.10;;;21.10;55.80;;;;;;5052727;28;20187;-71
2024/02/17 00:05:49;;;;;;;1.77;1.23;;;21.10;55.80;;;;;;5052853;28;20143;-70
2024/02/17 00:08:14;;;;;;;1.43;1.20;;;21.10;55.80;;;;;;5052374;28;20421;-70
2024/02/17 00:10:40;;;;;;;2.23;1.13;;;21.10;55.80;;;;;;5052830;28;21074;-71
2024/02/17 00:13:05;;;;;;;1.93;1.60;;;21.10;55.80;;;;;;5052536;28;20290;-69
2024/02/17 00:15:31;;;;;;;2.27;2.07;;;21.10;55.80;;;;;;5052652;28;20168;-69
2024/02/17 00:17:57;;;;;;;1.83;1.33;;;21.10;55.80;;;;;;5052470;28;20179;-71
2024/02/17 00:20:22;;;;;;;2.50;1.40;;;21.10;55.80;;;;;;5052985;28;20199;-72
2024/02/17 00:22:48;;;;;;;1.60;1.30;;;21.10;55.80;;;;;;5055482;28;20690;-70
2024/02/17 00:25:14;;;;;;;1.67;1.20;;;21.10;55.80;;;;;;5056737;28;20186;-70
2024/02/17 00:27:40;;;;;;;1.53;1.10;;;21.10;55.80;;;;;;5056206;28;20214;-69
2024/02/17 00:30:06;;;;;;;1.60;1.10;;;21.10;55.80;;;;;;5056567;28;20413;-70
2024/02/17 00:32:31;;;;;;;1.70;1.20;;;21.10;56.30;;;;;;5055981;28;20191;-71
2024/02/17 00:34:57;;;;;;;1.40;1.00;;;21.10;55.80;;;;;;5055748;28;21005;-71
2024/02/17 00:37:23;;;;;;;1.50;1.03;;;21.10;55.80;;;;;;5056287;28;20182;-70
2024/02/17 00:39:48;;;;;;;2.43;1.10;;;21.10;55.80;;;;;;5056451;28;20191;-70
2024/02/17 00:42:14;;;;;;;1.63;1.10;;;21.10;55.80;;;;;;5056130;28;20568;-70
2024/02/17 00:44:40;;;;;;;1.57;1.07;;;21.10;55.80;;;;;;5056120;28;20214;-70
2024/02/17 00:47:06;;;;;;;1.80;1.00;;;21.10;55.80;;;;;;5056344;28;20194;-70
2024/02/17 00:49:31;;;;;;;1.93;1.43;;;21.10;55.80;;;;;;5056180;28;20421;-70
2024/02/17 00:51:57;;;;;;;1.60;1.37;;;21.10;55.80;;;;;;5055706;28;20436;-71
2024/02/17 00:54:23;;;;;;;1.40;1.10;;;21.00;55.70;;;;;;5054698;28;20198;-71
2024/02/17 00:56:48;;;;;;;2.30;1.17;;;21.00;55.70;;;;;;5055803;28;20187;-70
2024/02/17 00:59:14;;;;;;;1.40;0.97;;;21.10;55.80;;;;;;5056106;28;20179;-71
2024/02/17 01:01:41;;;;;;;2.17;1.47;;;21.10;55.80;;;;;;5055590;28;20245;-71
2024/02/17 01:04:08;;;;;;;1.20;1.03;;;21.00;55.70;;;;;;5056020;28;20420;-71
2024/02/17 01:06:33;;;;;;;2.47;1.23;;;21.00;55.70;;;;;;5055893;28;20492;-71
2024/02/17 01:08:59;;;;;;;1.37;1.10;;;21.10;55.80;;;;;;5055899;28;20948;-71
2024/02/17 01:11:24;;;;;;;1.43;1.10;;;21.10;55.80;;;;;;5055047;28;20225;-70
2024/02/17 01:13:50;;;;;;;1.67;1.03;;;21.00;55.70;;;;;;5054167;28;20262;-70
2024/02/17 01:16:16;;;;;;;1.30;1.17;;;21.00;55.70;;;;;;5056191;28;20832;-70
2024/02/17 01:18:41;;;;;;;2.40;1.50;;;21.00;55.70;;;;;;5056124;28;20194;-70
2024/02/17 01:21:07;;;;;;;1.73;1.00;;;21.00;55.70;;;;;;5055579;28;20244;-70
2024/02/17 01:23:32;;;;;;;1.10;0.90;;;21.00;55.70;;;;;;5055343;28;20907;-70
2024/02/17 01:25:58;;;;;;;1.70;1.00;;;21.00;55.70;;;;;;5055774;28;20186;-70
2024/02/17 01:28:24;;;;;;;1.83;1.17;;;21.00;56.30;;;;;;5055613;28;20545;-70
2024/02/17 01:30:49;;;;;;;1.70;1.33;;;21.00;55.70;;;;;;5055153;28;20171;-71
2024/02/17 01:33:15;;;;;;;2.10;1.20;;;21.00;55.70;;;;;;5054327;28;20191;-70
2024/02/17 01:35:41;;;;;;;1.50;1.20;;;21.00;55.70;;;;;;5055248;28;20250;-70
2024/02/17 01:38:08;;;;;;;1.97;1.30;;;21.00;55.70;;;;;;5055174;28;20414;-68
2024/02/17 01:40:34;;;;;;;1.70;1.03;;;21.00;55.70;;;;;;5055288;28;20185;-70
2024/02/17 01:43:00;;;;;;;1.77;1.27;;;21.00;55.70;;;;;;5053333;28;20473;-71
2024/02/17 01:45:26;;;;;;;2.03;1.20;;;21.00;55.70;;;;;;5055019;28;20495;-69
2024/02/17 01:47:53;;;;;;;1.40;1.10;;;21.00;55.70;;;;;;5055126;28;20203;-70
2024/02/17 01:50:19;;;;;;;1.30;1.00;;;21.00;55.70;;;;;;5055123;28;20414;-71
2024/02/17 01:52:46;;;;;;;2.20;1.27;;;21.00;55.70;;;;;;5054887;28;20495;-69
2024/02/17 01:55:13;;;;;;;1.83;1.20;;;21.00;55.70;;;;;;5055177;28;20186;-71
2024/02/17 01:57:39;;;;;;;1.23;1.10;;;21.00;55.70;;;;;;5054998;28;20875;-71
2024/02/17 02:00:07;;;;;;;1.70;1.17;;;21.00;55.70;;;;;;5055254;28;20452;-69
2024/02/17 02:02:34;;;;;;;1.80;1.20;;;21.00;55.70;;;;;;5055265;28;20421;-70
2024/02/17 02:04:59;;;;;;;1.90;1.40;;;21.00;55.70;;;;;;5054923;28;20849;-71
2024/02/17 02:07:25;;;;;;;1.67;1.20;;;21.00;55.70;;;;;;5054544;28;20488;-71
2024/02/17 02:09:50;;;;;;;2.20;1.30;;;21.00;55.70;;;;;;5054978;28;20523;-71
2024/02/17 02:12:17;;;;;;;1.60;1.20;;;21.00;56.30;;;;;;5054673;28;20198;-71
2024/02/17 02:14:43;;;;;;;1.30;1.00;;;21.00;55.70;;;;;;5054861;28;20170;-70
2024/02/17 02:17:09;;;;;;;1.57;1.10;;;21.00;55.70;;;;;;5054863;28;20497;-69
2024/02/17 02:19:35;;;;;;;1.30;1.07;;;20.90;56.00;;;;;;5054347;28;20213;-71
2024/02/17 02:22:00;;;;;;;1.07;0.97;;;21.00;55.70;;;;;;5054089;28;20199;-71
2024/02/17 02:24:26;;;;;;;1.67;1.30;;;21.00;55.70;;;;;;5054367;28;20217;-69
2024/02/17 02:26:52;;;;;;;1.40;1.00;;;21.00;55.70;;;;;;5054588;28;20194;-71
2024/02/17 02:29:17;;;;;;;1.73;1.00;;;20.90;55.70;;;;;;5054221;28;20704;-70
2024/02/17 02:31:43;;;;;;;1.80;1.30;;;20.90;55.70;;;;;;5054380;28;20183;-70
2024/02/17 02:34:09;;;;;;;2.10;1.10;;;20.90;55.70;;;;;;5054486;28;20265;-71
2024/02/17 02:36:34;;;;;;;1.33;1.10;;;21.00;55.80;;;;;;5054285;28;20220;-72
2024/02/17 02:39:00;;;;;;;1.33;1.10;;;20.90;55.70;;;;;;5054609;28;20175;-71
2024/02/17 02:41:25;;;;;;;1.40;0.93;;;20.90;55.70;;;;;;5055098;28;20195;-72
2024/02/17 02:43:51;;;;;;;2.80;1.20;;;20.90;55.70;;;;;;5054331;28;20225;-70
2024/02/17 02:46:17;;;;;;;1.13;1.00;;;20.90;55.70;;;;;;5054307;28;20229;-70
2024/02/17 02:48:42;;;;;;;1.53;1.20;;;20.90;55.70;;;;;;5054036;28;20175;-70
2024/02/17 02:51:08;;;;;;;1.73;1.27;;;20.90;55.70;;;;;;5053712;28;20179;-71
2024/02/17 02:53:34;;;;;;;2.40;1.40;;;20.90;56.20;;;;;;5054251;28;20171;-71
2024/02/17 02:55:59;;;;;;;1.70;1.00;;;20.90;55.70;;;;;;5054071;28;20186;-70
2024/02/17 02:58:25;;;;;;;1.60;1.00;;;20.90;55.70;;;;;;5053624;28;20179;-70
2024/02/17 03:00:50;;;;;;;1.43;1.10;;;21.00;55.80;;;;;;5053591;28;20181;-71
2024/02/17 03:03:16;;;;;;;1.50;1.17;;;20.90;55.70;;;;;;5053618;28;20226;-71
2024/02/17 03:05:42;;;;;;;1.30;0.80;;;20.90;55.70;;;;;;5053554;28;20175;-71
2024/02/17 03:08:08;;;;;;;1.40;1.03;;;20.90;55.70;;;;;;5053461;28;20202;-70
2024/02/17 03:10:33;;;;;;;2.13;1.53;;;20.90;55.70;;;;;;5053551;28;20190;-71
2024/02/17 03:12:59;;;;;;;1.33;1.03;;;20.90;55.70;;;;;;5053394;28;20483;-71
2024/02/17 03:15:25;;;;;;;2.50;1.17;;;20.90;55.70;;;;;;5053156;28;20186;-69
2024/02/17 03:17:53;;;;;;;1.57;1.20;;;20.90;55.70;;;;;;5053936;28;20230;-70
2024/02/17 03:20:19;;;;;;;1.60;1.20;;;21.00;55.80;;;;;;5053762;28;20198;-69
2024/02/17 03:22:45;;;;;;;2.20;1.47;;;20.90;55.70;;;;;;5053524;28;20472;-70
2024/02/17 03:25:14;;;;;;;1.90;1.23;;;20.90;55.70;;;;;;5053142;28;20445;-70
2024/02/17 03:27:40;;;;;;;1.87;1.27;;;20.90;55.70;;;;;;5053303;28;20212;-70
2024/02/17 03:30:07;;;;;;;1.63;0.97;;;20.90;55.70;;;;;;5053035;28;20952;-69
2024/02/17 03:32:33;;;;;;;1.60;1.13;;;20.90;55.70;;;;;;5052869;28;20455;-71
2024/02/17 03:35:05;;;;;;;1.40;1.00;;;20.90;55.70;;;;;;5053308;28;20421;-71
2024/02/17 03:37:30;;;;;;;1.60;0.90;;;20.90;55.70;;;;;;5053954;28;20532;-70
2024/02/17 03:39:56;;;;;;;1.60;1.10;;;20.90;55.70;;;;;;5053040;28;21146;-71
2024/02/17 03:42:22;;;;;;;1.53;1.07;;;20.90;55.70;;;;;;5053423;28;20194;-70
2024/02/17 03:44:48;;;;;;;1.23;0.90;;;20.90;55.70;;;;;;5053064;28;20688;-68
2024/02/17 03:47:13;;;;;;;2.23;1.37;;;20.90;55.70;;;;;;5052643;28;20743;-70
2024/02/17 03:49:39;;;;;;;1.70;1.30;;;20.90;55.70;;;;;;5053160;28;20177;-70
2024/02/17 03:52:04;;;;;;;1.70;1.07;;;20.90;55.70;;;;;;5052952;28;20191;-71
2024/02/17 03:54:30;;;;;;;1.40;1.30;;;20.90;55.70;;;;;;5053050;28;20179;-71
2024/02/17 03:56:56;;;;;;;1.67;1.00;;;20.90;55.70;;;;;;5054725;28;20179;-71
2024/02/17 03:59:22;;;;;;;1.20;0.90;;;20.90;55.70;;;;;;5057471;28;20183;-71
2024/02/17 04:01:49;;;;;;;1.40;1.10;;;20.90;55.70;;;;;;5057567;28;20468;-70
2024/02/17 04:04:15;;;;;;;1.70;0.90;;;20.90;55.70;;;;;;5056871;28;20528;-71
2024/02/17 04:06:40;;;;;;;1.27;1.00;;;20.90;55.70;;;;;;5056999;28;20491;-70
2024/02/17 04:09:06;;;;;;;1.53;1.10;;;20.90;56.30;;;;;;5057205;28;20186;-70
2024/02/17 04:11:32;;;;;;;1.37;1.10;;;20.90;55.70;;;;;;5056735;28;20669;-70
2024/02/17 04:13:58;;;;;;;1.40;1.10;;;20.90;55.70;;;;;;5055812;28;20424;-70
2024/02/17 04:16:23;;;;;;;1.97;1.10;;;20.90;55.70;;;;;;5057115;28;20187;-71
2024/02/17 04:18:49;;;;;;;1.60;1.27;;;20.90;55.80;;;;;;5055986;28;20658;-71
2024/02/17 04:21:15;;;;;;;1.70;1.60;;;20.90;55.70;;;;;;5056711;28;20159;-71
2024/02/17 04:23:43;;;;;;;1.40;1.10;;;20.90;55.70;;;;;;5056353;28;20260;-71
2024/02/17 04:26:09;;;;;;;1.30;0.90;;;20.90;55.70;;;;;;5056392;28;20214;-69
2024/02/17 04:28:36;;;;;;;1.50;1.00;;;20.90;55.70;;;;;;5056966;28;20409;-70
2024/02/17 04:31:07;;;;;;;1.10;0.97;;;20.90;55.80;;;;;;5055943;28;20425;-71
2024/02/17 04:33:33;;;;;;;1.80;1.20;;;20.90;55.80;;;;;;5057143;28;20417;-69
2024/02/17 04:35:59;;;;;;;1.20;0.90;;;20.90;55.80;;;;;;5056416;28;20413;-70
2024/02/17 04:38:25;;;;;;;1.30;1.10;;;20.90;55.70;;;;;;5056220;28;20869;-70
2024/02/17 04:40:50;;;;;;;1.53;0.80;;;20.90;55.70;;;;;;5056226;28;20582;-71
2024/02/17 04:43:16;;;;;;;1.73;1.07;;;20.90;55.80;;;;;;5056165;28;20183;-68
2024/02/17 04:45:42;;;;;;;1.00;0.90;;;20.90;55.80;;;;;;5056460;28;20198;-70
2024/02/17 04:48:07;;;;;;;1.30;1.07;;;20.90;55.80;;;;;;5056358;28;20226;-70
2024/02/17 04:50:33;;;;;;;1.10;1.00;;;20.80;55.70;;;;;;5055926;28;20178;-70
2024/02/17 04:52:59;;;;;;;1.30;0.90;;;20.90;55.80;;;;;;5056220;28;20580;-71
2024/02/17 04:55:26;;;;;;;1.00;0.80;;;20.80;55.70;;;;;;5056243;28;20179;-70
2024/02/17 04:57:52;;;;;;;1.63;1.10;;;20.90;55.80;;;;;;5056087;28;20721;-71
2024/02/17 05:00:20;;;;;;;1.00;0.80;;;20.90;55.80;;;;;;5056210;28;20463;-69
2024/02/17 05:02:46;;;;;;;1.33;1.23;;;20.90;55.80;;;;;;5056039;28;20197;-71
2024/02/17 05:05:15;;;;;;;1.50;0.93;;;20.90;55.80;;;;;;5055764;28;20417;-71
2024/02/17 05:07:41;;;;;;;1.10;0.83;;;20.80;55.70;;;;;;5054884;28;20202;-71
2024/02/17 05:10:07;;;;;;;1.87;0.70;;;20.90;55.80;;;;;;5055465;28;20413;-71
2024/02/17 05:12:33;;;;;;;1.17;0.90;;;20.90;55.80;;;;;;5055439;28;20617;-71
2024/02/17 05:14:59;;;;;;;1.90;1.27;;;20.80;55.70;;;;;;5055751;28;20410;-71
2024/02/17 05:17:26;;;;;;;1.40;1.10;;;20.90;55.80;;;;;;5055642;28;20175;-71
2024/02/17 05:19:52;;;;;;;2.03;1.00;;;20.90;55.80;;;;;;5054172;28;20585;-71
2024/02/17 05:22:17;;;;;;;1.53;1.23;;;20.80;55.70;;;;;;5055463;28;20978;-71
2024/02/17 05:24:43;;;;;;;1.10;0.90;;;20.80;55.70;;;;;;5055550;28;20580;-69
2024/02/17 05:27:09;;;;;;;1.50;1.07;;;20.90;56.30;;;;;;5055766;28;20199;-70
2024/02/17 05:29:35;;;;;;;1.43;0.90;;;20.80;55.70;;;;;;5055921;28;20175;-71
2024/02/17 05:32:00;;;;;;;1.40;1.00;;;20.90;55.80;;;;;;5055155;28;20195;-71
2024/02/17 05:34:26;;;;;;;1.50;1.03;;;20.80;55.70;;;;;;5055482;28;20907;-70
2024/02/17 05:36:51;;;;;;;1.80;1.00;;;20.80;55.70;;;;;;5055097;28;20667;-70
2024/02/17 05:39:17;;;;;;;1.10;0.80;;;20.80;55.70;;;;;;5054934;28;20289;-70
2024/02/17 05:41:43;;;;;;;1.10;0.80;;;20.80;55.70;;;;;;5055069;28;20312;-71
2024/02/17 05:44:08;;;;;;;1.43;1.13;;;20.80;55.70;;;;;;5053854;28;20175;-70
2024/02/17 05:46:34;;;;;;;1.00;0.80;;;20.80;55.70;;;;;;5054266;28;20303;-70
2024/02/17 05:48:59;;;;;;;2.63;1.60;;;20.80;55.70;;;;;;5054917;28;20174;-71
2024/02/17 05:51:25;;;;;;;2.40;1.40;;;20.80;55.70;;;;;;5054002;28;20222;-71
2024/02/17 05:53:51;;;;;;;1.80;0.97;;;20.80;55.70;;;;;;5055572;28;20171;-70
2024/02/17 05:56:17;;;;;;;1.10;0.90;;;20.80;55.70;;;;;;5054655;28;20171;-70
2024/02/17 05:58:44;;;;;;;1.43;1.00;;;20.80;55.70;;;;;;5055192;28;20436;-70
2024/02/17 06:01:09;;;;;;;1.50;1.10;;;20.80;55.70;;;;;;5054870;28;20801;-70
2024/02/17 06:03:35;;;;;;;1.30;1.00;;;20.80;55.70;;;;;;5054975;28;20445;-70
2024/02/17 06:06:01;;;;;;;1.30;1.00;;;20.80;55.80;;;;;;5037275;28;20214;-70
2024/02/17 06:08:26;;;;;;;1.10;0.83;;;20.80;55.70;;;;;;5054175;28;20202;-70
2024/02/17 06:10:52;;;;;;;1.57;1.20;;;20.80;55.70;;;;;;5055097;28;20534;-70
2024/02/17 06:13:20;;;;;;;1.80;1.03;;;20.80;55.80;;;;;;5054542;28;20669;-70
2024/02/17 06:15:45;;;;;;;0.97;0.70;;;20.80;55.70;;;;;;5054637;28;20175;-72
2024/02/17 06:21:10;;;;;;;1.83;1.10;;;20.80;55.70;;;;;;5054139;28;20659;-70
2024/02/17 06:23:36;;;;;;;1.10;0.90;;;20.80;55.70;;;;;;5054390;28;20787;-69
2024/02/17 06:26:02;;;;;;;1.63;1.10;;;20.80;55.80;;;;;;5053671;28;20447;-71
2024/02/17 06:28:27;;;;;;;1.10;0.87;;;20.80;55.80;;;;;;5053835;28;20445;-70
2024/02/17 06:30:53;;;;;;;2.70;0.90;;;20.80;55.80;;;;;;5053549;28;20544;-71
2024/02/17 06:33:19;;;;;;;1.20;0.90;;;20.80;55.80;;;;;;5053310;28;20310;-70
2024/02/17 06:35:44;;;;;;;1.77;1.07;;;20.90;55.90;;;;;;5053207;28;20166;-69
2024/02/17 06:38:10;;;;;;;2.00;0.83;;;20.90;56.00;;;;;;5053506;28;20178;-70
2024/02/17 06:40:35;;;;;;;1.20;0.90;;;20.80;55.90;;;;;;5053713;28;20661;-71
2024/02/17 06:43:03;;;;;;;1.23;1.00;;;20.90;55.90;;;;;;5052628;28;20277;-70
2024/02/17 06:45:29;;;;;;;1.17;1.07;;;20.90;55.90;;;;;;5052946;28;20282;-70
2024/02/17 06:47:55;;;;;;;1.10;1.00;;;20.90;55.90;;;;;;5053359;28;20544;-70
2024/02/17 06:50:20;;;;;;;1.20;0.80;;;20.90;55.90;;;;;;5053418;28;20707;-70
2024/02/17 06:52:46;;;;;;;1.43;1.13;;;20.90;55.90;;;;;;5052675;28;20191;-70
2024/02/17 06:55:12;;;;;;;1.37;1.00;;;20.90;56.50;;;;;;5053017;28;20547;-70
2024/02/17 06:57:37;;;;;;;1.30;1.00;;;20.90;55.90;;;;;;5053609;28;20658;-71
2024/02/17 07:00:04;;;;;;;1.03;0.87;;;20.90;55.90;;;;;;5052972;28;20415;-71
2024/02/17 07:02:30;;;;;;;2.17;0.90;;;21.00;56.00;;;;;;5052763;28;20207;-70
2024/02/17 07:04:55;;;;;;;1.20;1.00;;;20.90;55.90;;;;;;5053068;28;20421;-71
2024/02/17 07:07:23;;;;;;;1.57;1.10;;;20.90;55.90;;;;;;5052227;28;20452;-71
2024/02/17 07:09:48;;;;;;;1.23;1.03;;;20.90;55.90;;;;;;5052835;28;20171;-71
2024/02/17 07:12:14;;;;;;;1.30;1.00;;;21.00;56.00;;;;;;5052821;28;20430;-70
2024/02/17 07:14:40;;;;;;;1.17;0.90;;;21.00;56.00;;;;;;5051534;28;20787;-70
2024/02/17 07:17:05;;;;;;;1.87;1.10;;;20.90;55.90;;;;;;5052794;28;20179;-70
2024/02/17 07:19:31;;;;;;;1.47;0.90;;;21.00;56.00;;;;;;5052931;28;20191;-72
2024/02/17 07:21:57;;;;;;;1.27;0.90;;;20.90;55.90;;;;;;5051640;28;20195;-72
2024/02/17 07:24:23;;;;;;;1.10;0.80;;;21.00;55.90;;;;;;5052968;28;20175;-70
2024/02/17 07:26:52;;;;;;;1.87;1.03;;;21.00;55.90;;;;;;5054279;28;20207;-70
2024/02/17 07:29:18;;;;;;;1.27;1.00;;;20.90;55.80;;;;;;5053598;28;20413;-69
2024/02/17 07:31:44;;;;;;;1.30;1.03;;;20.90;55.90;;;;;;5050570;28;20479;-70
2024/02/17 07:34:14;;;;;;;2.07;1.07;;;20.90;55.90;;;;;;5052596;28;20859;-71
2024/02/17 07:36:41;;;;;;;2.43;1.10;;;21.00;55.90;;;;;;5052850;28;20818;-69
2024/02/17 07:39:08;;;;;;;1.40;1.10;;;21.00;56.00;;;;;;5052942;28;20409;-70
2024/02/17 07:41:33;;;;;;;2.10;1.10;;;21.00;56.00;;;;;;5052708;28;20517;-70
2024/02/17 07:43:59;;;;;;;2.80;0.97;;;20.90;55.90;;;;;;5052403;28;20441;-70
2024/02/17 07:46:25;;;;;;;2.33;1.30;;;21.00;56.50;;;;;;5052437;28;20201;-70
2024/02/17 07:48:51;;;;;;;1.10;0.93;;;21.00;56.00;;;;;;5052747;28;20186;-70
2024/02/17 07:51:16;;;;;;;1.63;1.03;;;21.00;56.00;;;;;;5052315;28;20916;-71
2024/02/17 07:53:42;;;;;;;1.10;0.90;;;21.00;56.00;;;;;;5052241;28;20225;-70
2024/02/17 07:56:09;;;;;;;1.50;0.90;;;21.00;56.00;;;;;;5052008;28;20565;-70
2024/02/17 07:58:35;;;;;;;2.10;0.80;;;21.00;56.00;;;;;;5052141;28;20168;-70
2024/02/17 08:01:00;;;;;;;1.47;1.00;;;21.00;56.00;;;;;;5052254;28;20421;-71
2024/02/17 08:03:27;;;;;;;1.70;1.20;;;21.00;56.00;;;;;;5052388;28;20674;-70
2024/02/17 08:05:53;;;;;;;2.90;2.07;;;21.00;56.00;;;;;;5052586;28;20966;-71
2024/02/17 08:08:19;;;;;;;1.80;1.20;;;21.00;56.00;;;;;;5052510;28;20445;-70
2024/02/17 08:10:44;;;;;;;3.53;1.40;;;21.00;56.00;;;;;;5052207;28;20420;-70
2024/02/17 08:13:10;;;;;;;2.30;1.50;;;21.00;56.00;;;;;;5052069;28;20202;-71
2024/02/17 08:15:36;;;;;;;2.73;0.90;;;21.00;56.00;;;;;;5052562;28;20172;-71
2024/02/17 08:18:02;;;;;;;2.50;1.30;;;21.00;56.00;;;;;;5052121;28;20178;-71
2024/02/17 08:20:27;;;;;;;1.50;1.17;;;21.00;56.10;;;;;;5052304;28;20209;-71
2024/02/17 08:22:53;;;;;;;2.90;1.03;;;21.00;56.00;;;;;;5051580;28;20191;-71
2024/02/17 08:25:19;;;;;;;2.03;1.00;;;21.00;56.00;;;;;;5052391;28;20205;-71
2024/02/17 08:27:45;;;;;;;2.17;1.00;;;21.00;56.00;;;;;;5052213;28;20209;-71
2024/02/17 08:30:11;;;;;;;3.10;1.47;;;21.10;56.10;;;;;;5050900;28;20642;-71
2024/02/17 08:32:36;;;;;;;2.93;0.80;;;21.10;56.10;;;;;;5052086;28;20435;-70
2024/02/17 08:35:03;;;;;;;2.90;1.23;;;21.10;56.00;;;;;;5050662;28;20504;-72
2024/02/17 08:37:28;;;;;;;1.87;0.70;;;21.10;56.00;;;;;;5052220;28;20601;-70
2024/02/17 08:39:54;;;;;;;1.43;1.00;;;21.10;56.00;;;;;;5051147;28;20500;-71
2024/02/17 08:42:20;;;;;;;1.47;0.90;;;21.10;56.00;;;;;;5051908;28;20194;-71
2024/02/17 08:44:47;;;;;;;3.37;1.47;;;21.10;56.00;;;;;;5055234;28;20183;-70
2024/02/17 08:47:13;;;;;;;2.47;1.23;;;21.10;56.60;;;;;;5054929;28;20202;-70
2024/02/17 08:49:38;;;;;;;2.93;1.17;;;21.10;56.10;;;;;;5055830;28;20401;-70
2024/02/17 08:52:04;;;;;;;2.93;1.20;;;21.10;56.10;;;;;;5054937;28;20195;-71
2024/02/17 08:54:30;;;;;;;3.00;1.00;;;21.10;56.10;;;;;;5055035;28;20564;-70
2024/02/17 08:56:55;;;;;;;2.20;1.40;;;21.10;56.10;;;;;;5053788;28;20190;-69
2024/02/17 08:59:21;;;;;;;2.10;1.10;;;21.10;56.10;;;;;;5055274;28;20174;-71
2024/02/17 09:01:46;;;;;;;2.33;1.10;;;21.10;56.10;;;;;;5055162;28;20674;-70
2024/02/17 09:04:12;;;;;;;3.27;1.40;;;21.10;56.20;;;;;;5055019;28;20167;-69
2024/02/17 09:06:38;;;;;;;2.80;1.30;;;21.10;56.20;;;;;;5055158;28;20205;-70
2024/02/17 09:09:03;;;;;;;2.23;1.20;;;21.10;56.20;;;;;;5054842;28;20936;-71
2024/02/17 09:11:29;;;;;;;1.37;1.10;;;21.10;56.20;;;;;;5054807;28;20191;-71
2024/02/17 09:13:55;;;;;;;2.13;1.10;;;21.10;56.20;;;;;;5055824;28;20182;-72
2024/02/17 09:16:21;;;;;;;1.53;1.10;;;21.10;56.20;;;;;;5055450;28;20409;-71
2024/02/17 09:18:46;;;;;;;1.70;1.20;;;21.10;56.20;;;;;;5054806;28;20195;-71
2024/02/17 09:21:12;;;;;;;2.80;1.10;;;21.10;56.10;;;;;;5054097;28;20225;-70
2024/02/17 09:23:37;;;;;;;2.40;1.20;;;21.10;56.20;;;;;;5055595;28;20230;-71
2024/02/17 09:26:04;;;;;;;3.53;1.20;;;21.10;56.10;;;;;;5055858;28;20175;-71
2024/02/17 09:28:29;;;;;;;2.93;1.37;;;21.10;56.10;;;;;;5055079;28;20183;-72
2024/02/17 09:30:55;;;;;;;2.53;1.60;;;21.10;56.20;;;;;;5054959;28;20432;-71
2024/02/17 09:33:27;;;;;;;1.70;1.50;;;21.10;56.20;;;;;;5055403;28;20210;-71
2024/02/17 09:35:52;;;;;;;2.07;1.40;;;21.10;56.20;;;;;;5054930;28;20221;-71
2024/02/17 09:38:18;;;;;;;1.43;1.13;;;21.10;56.10;;;;;;5055291;28;20409;-71
2024/02/17 09:40:44;;;;;;;2.47;1.40;;;21.10;56.10;;;;;;5055456;28;20199;-71
2024/02/17 09:43:09;;;;;;;2.00;1.33;;;21.10;56.10;;;;;;5054836;28;20183;-70
2024/02/17 09:45:35;;;;;;;3.47;1.00;;;21.20;56.20;;;;;;5053848;28;20721;-70
2024/02/17 09:48:01;;;;;;;2.23;1.37;;;21.20;56.20;;;;;;5054204;28;20198;-71
2024/02/17 09:50:28;;;;;;;1.60;1.00;;;21.10;56.10;;;;;;5054700;28;20173;-71
2024/02/17 09:52:54;;;;;;;1.40;1.10;;;21.20;56.20;;;;;;5054817;28;20429;-72
2024/02/17 09:55:22;;;;;;;1.30;1.13;;;21.20;56.20;;;;;;5052362;28;20531;-71
2024/02/17 09:57:48;;;;;;;2.70;1.20;;;21.20;56.20;;;;;;5054621;28;20421;-71
2024/02/17 10:00:14;;;;;;;2.70;1.67;;;21.20;56.20;;;;;;5054593;28;20825;-69
2024/02/17 10:02:40;;;;;;;2.17;1.30;;;21.20;56.20;;;;;;5054227;28;20277;-70
2024/02/17 10:05:07;;;;;;;2.83;1.83;;;21.20;56.20;;;;;;5054690;28;20444;-70
2024/02/17 10:07:49;;;;;;;1.70;1.23;;;21.20;56.20;;;;;;5054389;28;20465;-69
2024/02/17 10:10:18;;;;;;;2.00;1.40;;;21.20;56.20;;;;;;5054988;28;20394;-71
2024/02/17 10:12:57;;;;;;;1.50;1.13;;;21.20;56.20;;;;;;5054668;28;20943;-71
2024/02/17 10:15:24;;;;;;;1.93;1.17;;;21.20;56.20;;;;;;5054793;28;20421;-71
2024/02/17 10:17:51;;;;;;;1.80;1.20;;;21.20;56.20;;;;;;5054723;28;20416;-71
2024/02/17 10:20:17;;;;;;;2.37;1.03;;;21.20;56.20;;;;;;5054747;28;20432;-69
2024/02/17 10:22:45;;;;;;;1.60;1.03;;;21.20;56.20;;;;;;5053280;28;20544;-70
2024/02/17 10:25:11;;;;;;;2.37;1.10;;;21.20;56.10;;;;;;5055330;28;20175;-71
2024/02/17 10:27:39;;;;;;;1.73;1.30;;;21.20;56.10;;;;;;5054883;28;21017;-70
2024/02/17 10:30:11;;;;;;;1.80;1.10;;;21.20;56.20;;;;;;5054717;28;20421;-70
2024/02/17 10:32:37;;;;;;;2.27;1.47;;;21.20;56.20;;;;;;5054319;28;20456;-71
2024/02/17 10:35:05;;;;;;;1.57;1.10;;;21.20;56.20;;;;;;5054138;28;20413;-70
2024/02/17 10:37:32;;;;;;;3.37;1.50;;;21.20;56.20;;;;;;5054424;28;21234;-71
2024/02/17 10:40:03;;;;;;;3.90;1.70;;;21.20;56.20;;;;;;5055090;28;20406;-69
2024/02/17 10:42:30;;;;;;;1.93;1.20;;;21.20;56.30;;;;;;5054428;28;20429;-70
2024/02/17 10:45:00;;;;;;;1.87;1.20;;;21.20;56.20;;;;;;5054260;28;20406;-71
2024/02/17 10:47:27;;;;;;;2.50;1.10;;;21.20;56.30;;;;;;5054359;28;20490;-69
2024/02/17 10:50:18;;;;;;;2.37;1.20;;;21.20;56.30;;;;;;5054292;28;20414;-71
2024/02/17 10:52:52;;;;;;;1.60;1.10;;;21.30;56.40;;;;;;5053926;28;20428;-71
2024/02/17 10:55:26;;;;;;;2.10;1.43;;;21.20;56.20;;;;;;5055297;28;20420;-71
2024/02/17 10:57:55;;;;;;;1.40;1.20;;;21.20;56.10;;;;;;5052659;28;20393;-70
2024/02/17 11:00:22;;;;;;;1.50;1.10;;;21.20;56.10;;;;;;5053756;28;20410;-70
2024/02/17 11:02:49;;;;;;;2.10;1.30;;;21.20;56.10;;;;;;5053910;28;20441;-70
2024/02/17 11:05:18;;;;;;;2.17;1.37;;;21.20;56.10;;;;;;5054638;28;20436;-70
2024/02/17 11:07:45;;;;;;;2.00;1.30;;;21.20;56.00;;;;;;5054693;28;20457;-71
2024/02/17 11:10:12;;;;;;;2.13;1.33;;;21.20;56.00;;;;;;5054632;28;20501;-71
2024/02/17 11:12:39;;;;;;;1.67;1.20;;;21.20;56.00;;;;;;5053848;28;20476;-72
2024/02/17 11:15:08;;;;;;;1.70;1.30;;;21.20;55.90;;;;;;5052661;28;20412;-71
2024/02/17 11:17:44;;;;;;;1.80;1.30;;;21.20;55.90;;;;;;5051526;28;20414;-69
2024/02/17 11:20:12;;;;;;;3.20;1.87;;;21.30;56.00;;;;;;5053220;28;20433;-71
2024/02/17 11:22:42;;;;;;;3.10;1.67;;;21.30;56.00;;;;;;5052823;28;20437;-71
2024/02/17 11:25:12;;;;;;;5.27;1.90;;;21.30;56.00;;;;;;5052746;28;20462;-71
2024/02/17 11:27:42;;;;;;;4.63;2.40;;;21.30;56.00;;;;;;5052538;28;20457;-72
2024/02/17 11:30:08;;;;;;;4.57;2.30;;;21.30;56.00;;;;;;5051284;28;20432;-71
2024/02/17 11:32:38;;;;;;;4.47;2.37;;;21.30;56.00;;;;;;5052917;28;20444;-71
2024/02/17 11:35:07;;;;;;;7.07;3.03;;;21.30;56.00;;;;;;5053367;28;20505;-71
2024/02/17 11:37:35;;;;;;;5.33;2.17;;;21.30;56.00;;;;;;5053948;28;20409;-70
2024/02/17 11:40:01;;;;;;;5.17;2.60;;;21.30;55.90;;;;;;5054272;28;20437;-70
2024/02/17 11:42:27;;;;;;;5.57;3.20;;;21.30;55.90;;;;;;5054160;28;20453;-70
2024/02/17 11:44:54;;;;;;;5.33;2.70;;;21.30;55.90;;;;;;5054526;28;20420;-69
2024/02/17 11:47:20;;;;;;;4.07;2.90;;;21.30;55.80;;;;;;5053810;28;20456;-70
2024/02/17 11:49:46;;;;;;;5.67;2.90;;;21.30;55.80;;;;;;5054315;28;20979;-70
2024/02/17 11:52:12;;;;;;;6.77;3.57;;;21.30;55.80;;;;;;5054296;28;20191;-71
2024/02/17 11:54:38;;;;;;;8.03;3.33;;;21.30;55.80;;;;;;5054351;28;20681;-72
2024/02/17 11:57:05;;;;;;;5.77;3.60;;;21.30;55.70;;;;;;5054055;28;20250;-71
2024/02/17 11:59:31;;;;;;;7.13;3.47;;;21.30;55.70;;;;;;5053871;28;20451;-71
2024/02/17 12:01:58;;;;;;;6.47;2.90;;;21.30;55.70;;;;;;5053962;28;20510;-71
2024/02/17 12:04:24;;;;;;;8.07;3.63;;;21.30;55.70;;;;;;5053587;28;20475;-69
2024/02/17 12:06:51;;;;;;;6.23;3.60;;;21.30;55.70;;;;;;5052866;28;20540;-69
2024/02/17 12:09:17;;;;;;;8.80;3.73;;;21.30;55.70;;;;;;5052793;28;20189;-71
2024/02/17 12:11:43;;;;;;;4.80;3.57;;;21.30;55.70;;;;;;5051300;28;20442;-68
2024/02/17 12:14:10;;;;;;;7.30;3.40;;;21.30;55.70;;;;;;5053377;28;20171;-69
2024/02/17 12:16:36;;;;;;;4.87;3.50;;;21.30;55.80;;;;;;5052976;28;20415;-70
2024/02/17 12:19:11;;;;;;;9.57;3.70;;;21.30;55.80;;;;;;5055797;28;20895;-71
2024/02/17 12:21:38;;;;;;;8.27;3.93;;;21.30;55.80;;;;;;5056838;28;20437;-72
2024/02/17 12:24:06;;;;;;;8.57;4.63;;;21.30;55.90;;;;;;5058110;28;20413;-71
2024/02/17 12:26:32;;;;;;;8.27;4.30;;;21.30;55.90;;;;;;5058760;28;20489;-71
2024/02/17 12:29:02;;;;;;;8.80;4.00;;;21.30;55.90;;;;;;5058887;28;20476;-71
2024/02/17 12:31:29;;;;;;;8.10;3.87;;;21.30;55.90;;;;;;5058666;28;20417;-71
2024/02/17 12:33:54;;;;;;;7.40;3.83;;;21.30;56.00;;;;;;5058550;28;20405;-71
2024/02/17 12:36:21;;;;;;;10.60;4.33;;;21.30;56.00;;;;;;5059056;28;20535;-70
2024/02/17 12:38:47;;;;;;;7.10;3.90;;;21.30;56.00;;;;;;5058576;28;20167;-71
2024/02/17 12:41:19;;;;;;;9.50;3.80;;;21.30;56.00;;;;;;5058120;28;20406;-71
2024/02/17 12:43:48;;;;;;;11.23;4.17;;;21.30;56.00;;;;;;5058110;28;20823;-72
2024/02/17 12:46:18;;;;;;;5.43;3.40;;;21.30;56.60;;;;;;5057734;28;20987;-71